createdAt,value
2022-11-15T00:00:32.744Z,83.59
2022-11-15T00:01:32.677Z,83.49
2022-11-15T00:02:32.701Z,83.49
2022-11-15T00:03:32.929Z,83.49
2022-11-15T00:04:32.771Z,83.49
2022-11-15T00:05:32.668Z,83.49
2022-11-15T00:06:32.625Z,83.49
2022-11-15T00:07:54.536Z,83.39
2022-11-15T00:08:33.583Z,83.39
2022-11-15T00:09:32.587Z,83.04
2022-11-15T00:10:32.608Z,83.04
2022-11-15T00:11:32.563Z,83.04
2022-11-15T00:12:32.575Z,83.04
2022-11-15T00:13:33.049Z,83.14
2022-11-15T00:14:32.521Z,83.25
2022-11-15T00:15:32.534Z,83.34
2022-11-15T00:16:32.505Z,83.45
2022-11-15T00:17:32.540Z,83.45
2022-11-15T00:18:32.531Z,83.45
2022-11-15T00:19:32.520Z,83.34
2022-11-15T00:20:32.466Z,83.34
2022-11-15T00:21:32.465Z,83.20
2022-11-15T00:22:32.451Z,83.20
2022-11-15T00:23:32.757Z,83.82
2022-11-15T00:24:32.414Z,83.72
2022-11-15T00:25:36.341Z,83.61
2022-11-15T00:26:32.394Z,83.72
2022-11-15T00:27:32.406Z,83.82
2022-11-15T00:28:32.374Z,83.82
2022-11-15T00:29:32.364Z,84.03
2022-11-15T00:30:32.385Z,84.03
2022-11-15T00:31:32.369Z,84.03
2022-11-15T00:32:32.401Z,84.12
2022-11-15T00:33:32.818Z,84.03
2022-11-15T00:34:32.313Z,83.98
2022-11-15T00:35:32.591Z,84.09
2022-11-15T00:36:32.267Z,84.23
2022-11-15T00:37:32.353Z,84.33
2022-11-15T00:38:32.252Z,84.44
2022-11-15T00:39:32.239Z,84.53
2022-11-15T00:40:32.291Z,84.84
2022-11-15T00:41:32.261Z,85.05
2022-11-15T00:42:32.222Z,85.15
2022-11-15T00:43:32.642Z,85.25
2022-11-15T00:44:37.064Z,85.36
2022-11-15T00:45:32.194Z,85.42
2022-11-15T00:46:35.982Z,85.31
2022-11-15T00:47:32.192Z,85.42
2022-11-15T00:48:32.180Z,85.42
2022-11-15T00:49:32.150Z,85.31
2022-11-15T00:50:32.192Z,85.22
2022-11-15T00:51:32.162Z,85.22
2022-11-15T00:52:32.244Z,85.11
2022-11-15T00:53:32.716Z,85.11
2022-11-15T00:54:32.178Z,85.11
2022-11-15T00:55:32.106Z,85.11
2022-11-15T00:56:32.078Z,85.11
2022-11-15T00:57:32.070Z,85.22
2022-11-15T00:58:32.071Z,85.11
2022-11-15T00:59:32.172Z,85.17
2022-11-15T01:00:32.201Z,85.17
2022-11-15T01:01:32.154Z,85.17
2022-11-15T01:02:32.020Z,85.17
2022-11-15T01:03:32.362Z,85.07
2022-11-15T01:04:32.019Z,84.97
2022-11-15T01:05:32.065Z,84.97
2022-11-15T01:06:32.166Z,84.97
2022-11-15T01:07:32.003Z,85.07
2022-11-15T01:08:31.995Z,85.24
2022-11-15T01:09:32.012Z,85.24
2022-11-15T01:10:31.960Z,85.34
2022-11-15T01:11:32.011Z,85.34
2022-11-15T01:12:31.901Z,85.34
2022-11-15T01:13:32.256Z,85.34
2022-11-15T01:14:31.935Z,85.24
2022-11-15T01:15:31.902Z,85.34
2022-11-15T01:16:31.856Z,85.24
2022-11-15T01:17:31.914Z,85.20
2022-11-15T01:18:31.832Z,85.40
2022-11-15T01:19:31.890Z,85.61
2022-11-15T01:20:31.844Z,85.71
2022-11-15T01:21:31.962Z,85.71
2022-11-15T01:22:31.832Z,85.71
2022-11-15T01:23:32.130Z,85.71
2022-11-15T01:24:31.795Z,85.71
2022-11-15T01:31:19.998Z,86.02
2022-11-15T01:32:20.122Z,86.08
2022-11-15T01:32:58.414Z,86.08
2022-11-15T01:34:10.782Z,86.08
2022-11-15T01:35:24.660Z,85.97
2022-11-15T01:45:40.317Z,85.77
2022-11-15T01:46:27.043Z,85.88
2022-11-15T01:47:21.636Z,85.97
2022-11-15T01:48:39.127Z,86.08
2022-11-15T01:49:22.525Z,86.18
2022-11-15T02:49:57.614Z,87.70
2022-11-15T02:55:54.385Z,88.00
2022-11-15T03:00:22.987Z,88.00
2022-11-15T03:00:39.023Z,88.10
2022-11-15T03:01:41.234Z,88.10
2022-11-15T03:02:38.780Z,88.20
2022-11-15T03:14:10.308Z,88.67
2022-11-15T03:15:09.140Z,88.78
2022-11-15T03:15:46.845Z,88.78
2022-11-15T03:16:47.188Z,88.67
2022-11-15T03:17:47.674Z,88.78
2022-11-15T03:18:47.027Z,88.78
2022-11-15T03:19:46.784Z,88.88
2022-11-15T03:20:49.878Z,88.88
2022-11-15T03:21:59.188Z,88.88
2022-11-15T03:22:47.225Z,88.88
2022-11-15T03:23:46.766Z,88.78
2022-11-15T03:24:47.716Z,88.78
2022-11-15T03:25:46.816Z,88.78
2022-11-15T03:26:49.458Z,88.67
2022-11-15T03:27:47.751Z,88.57
2022-11-15T03:28:46.761Z,88.57
2022-11-15T03:29:46.665Z,88.67
2022-11-15T03:31:05.167Z,88.67
2022-11-15T03:31:50.574Z,88.67
2022-11-15T03:32:47.082Z,88.67
2022-11-15T03:33:47.184Z,88.67
2022-11-15T03:34:46.878Z,88.67
2022-11-15T03:35:49.675Z,88.67
2022-11-15T03:36:47.418Z,88.67
2022-11-15T03:37:47.969Z,88.67
2022-11-15T03:38:48.726Z,88.67
2022-11-15T03:39:46.875Z,88.57
2022-11-15T03:40:48.673Z,88.67
2022-11-15T03:42:11.651Z,88.67
2022-11-15T03:42:47.396Z,88.78
2022-11-15T03:43:47.728Z,88.88
2022-11-15T03:44:47.149Z,88.98
2022-11-15T03:45:46.657Z,88.98
2022-11-15T03:46:50.160Z,88.98
2022-11-15T03:47:46.724Z,89.08
2022-11-15T03:48:47.321Z,88.98
2022-11-15T03:49:46.652Z,88.98
2022-11-15T03:50:46.633Z,89.08
2022-11-15T03:51:47.028Z,89.12
2022-11-15T03:52:46.349Z,89.23
2022-11-15T03:53:46.703Z,89.32
2022-11-15T03:54:47.641Z,89.32
2022-11-15T03:55:46.362Z,89.43
2022-11-15T03:56:47.552Z,89.53
2022-11-15T03:57:47.314Z,89.53
2022-11-15T03:58:46.285Z,89.63
2022-11-15T03:59:46.320Z,89.63
2022-11-15T04:00:46.892Z,89.63
2022-11-15T04:01:46.515Z,89.73
2022-11-15T04:02:55.081Z,89.73
2022-11-15T04:03:46.789Z,89.84
2022-11-15T04:04:46.403Z,89.84
2022-11-15T04:05:46.162Z,89.84
2022-11-15T04:06:46.741Z,89.84
2022-11-15T04:07:46.204Z,89.94
2022-11-15T04:08:46.212Z,89.94
2022-11-15T04:09:46.303Z,89.94
2022-11-15T04:10:47.498Z,89.94
2022-11-15T04:11:48.366Z,89.94
2022-11-15T04:12:46.332Z,89.94
2022-11-15T04:14:07.255Z,89.94
2022-11-15T04:14:47.771Z,89.94
2022-11-15T04:15:46.821Z,89.94
2022-11-15T04:16:46.977Z,89.94
2022-11-15T04:17:47.144Z,89.84
2022-11-15T04:18:46.626Z,89.84
2022-11-15T04:19:46.209Z,89.84
2022-11-15T04:20:46.211Z,89.84
2022-11-15T04:21:46.388Z,89.84
2022-11-15T04:22:46.092Z,89.84
2022-11-15T04:23:46.053Z,89.84
2022-11-15T04:24:46.045Z,89.94
2022-11-15T04:25:50.437Z,90.04
2022-11-15T04:26:49.168Z,90.14
2022-11-15T04:27:57.730Z,90.14
2022-11-15T04:28:46.014Z,90.14
2022-11-15T04:30:07.458Z,90.14
2022-11-15T04:30:47.206Z,90.25
2022-11-15T04:31:48.307Z,90.35
2022-11-15T04:32:48.594Z,90.35
2022-11-15T04:33:47.703Z,90.35
2022-11-15T04:35:07.546Z,90.25
2022-11-15T04:35:58.234Z,90.25
2022-11-15T04:36:50.847Z,90.25
2022-11-15T04:37:55.814Z,90.25
2022-11-15T05:01:37.609Z,89.90
2022-11-15T05:19:40.157Z,89.79
2022-11-15T05:27:13.925Z,89.59
2022-11-15T05:28:08.345Z,89.69
2022-11-15T05:29:06.906Z,89.69
2022-11-15T05:30:06.886Z,89.79
2022-11-15T05:31:06.876Z,89.79
2022-11-15T05:32:06.852Z,89.79
2022-11-15T05:33:06.875Z,89.94
2022-11-15T05:34:06.825Z,89.94
2022-11-15T05:35:06.816Z,90.04
2022-11-15T05:36:06.812Z,90.04
2022-11-15T05:37:06.800Z,90.04
2022-11-15T05:38:06.784Z,90.00
2022-11-15T05:39:08.915Z,90.04
2022-11-15T05:40:06.761Z,90.00
2022-11-15T05:41:06.751Z,90.00
2022-11-15T05:42:06.738Z,89.90
2022-11-15T05:43:06.735Z,90.00
2022-11-15T05:44:06.717Z,89.90
2022-11-15T05:45:06.724Z,89.90
2022-11-15T05:46:06.704Z,89.90
2022-11-15T05:47:06.715Z,89.90
2022-11-15T05:48:06.676Z,89.90
2022-11-15T05:49:06.666Z,89.90
2022-11-15T05:50:06.678Z,89.90
2022-11-15T05:51:06.644Z,89.79
2022-11-15T05:52:06.631Z,89.79
2022-11-15T05:53:06.627Z,89.79
2022-11-15T05:54:06.632Z,89.79
2022-11-15T05:55:06.603Z,89.69
2022-11-15T05:56:06.598Z,89.69
2022-11-15T05:57:06.601Z,89.49
2022-11-15T05:58:06.583Z,89.39
2022-11-15T05:59:06.577Z,89.39
2022-11-15T06:00:06.548Z,89.28
2022-11-15T06:01:06.529Z,89.18
2022-11-15T06:02:06.629Z,89.08
2022-11-15T06:03:06.517Z,89.08
2022-11-15T06:04:06.608Z,89.08
2022-11-15T06:05:06.502Z,89.08
2022-11-15T06:06:06.487Z,88.98
2022-11-15T06:07:06.503Z,88.98
2022-11-15T06:08:06.469Z,88.98
2022-11-15T06:09:06.476Z,88.98
2022-11-15T06:10:06.445Z,89.08
2022-11-15T06:11:06.456Z,89.08
2022-11-15T06:12:06.424Z,89.18
2022-11-15T06:13:06.410Z,89.18
2022-11-15T06:14:06.410Z,89.18
2022-11-15T06:15:06.383Z,89.18
2022-11-15T06:16:06.381Z,89.18
2022-11-15T06:17:11.113Z,89.08
2022-11-15T06:18:07.364Z,88.98
2022-11-15T06:19:06.390Z,88.98
2022-11-15T06:20:06.338Z,88.98
2022-11-15T06:21:06.333Z,88.88
2022-11-15T06:22:06.308Z,88.78
2022-11-15T06:23:06.311Z,88.78
2022-11-15T06:24:06.309Z,88.78
2022-11-15T06:25:06.281Z,88.88
2022-11-15T06:26:06.296Z,88.88
2022-11-15T06:27:06.264Z,88.88
2022-11-15T06:28:06.280Z,88.88
2022-11-15T06:29:06.367Z,88.88
2022-11-15T06:30:06.259Z,88.88
2022-11-15T06:31:06.235Z,88.78
2022-11-15T06:32:06.199Z,88.88
2022-11-15T06:33:06.196Z,88.78
2022-11-15T06:34:06.182Z,88.78
2022-11-15T06:35:06.497Z,88.78
2022-11-15T06:36:06.191Z,88.88
2022-11-15T06:37:06.161Z,88.88
2022-11-15T06:38:06.152Z,88.98
2022-11-15T06:39:06.133Z,88.88
2022-11-15T06:40:06.108Z,88.88
2022-11-15T06:41:06.106Z,88.88
2022-11-15T06:42:06.091Z,88.88
2022-11-15T06:43:06.087Z,88.88
2022-11-15T06:44:06.079Z,88.88
2022-11-15T06:45:06.069Z,88.88
2022-11-15T06:46:06.060Z,88.73
2022-11-15T06:47:06.038Z,88.63
2022-11-15T06:48:06.028Z,88.43
2022-11-15T06:49:09.621Z,88.32
2022-11-15T06:50:06.016Z,88.22
2022-11-15T06:51:06.025Z,88.12
2022-11-15T06:52:05.993Z,88.22
2022-11-15T06:53:05.985Z,88.12
2022-11-15T06:54:05.997Z,88.12
2022-11-15T06:55:05.966Z,88.02
2022-11-15T06:56:05.942Z,88.02
2022-11-15T06:57:05.928Z,87.82
2022-11-15T06:58:05.941Z,87.77
2022-11-15T06:59:05.909Z,87.67
2022-11-15T07:00:05.912Z,87.67
2022-11-15T07:01:05.957Z,87.67
2022-11-15T07:02:05.878Z,87.57
2022-11-15T07:03:05.875Z,87.47
2022-11-15T07:04:05.861Z,87.37
2022-11-15T07:05:05.862Z,87.37
2022-11-15T07:06:07.760Z,87.26
2022-11-15T07:07:05.895Z,87.16
2022-11-15T07:08:05.840Z,87.06
2022-11-15T07:09:05.819Z,87.06
2022-11-15T07:10:05.810Z,87.16
2022-11-15T07:11:05.779Z,87.16
2022-11-15T07:12:07.873Z,87.16
2022-11-15T07:13:05.770Z,87.16
2022-11-15T07:14:05.761Z,87.16
2022-11-15T07:15:05.737Z,87.26
2022-11-15T07:16:05.737Z,87.26
2022-11-15T07:17:05.733Z,87.37
2022-11-15T07:18:05.746Z,87.37
2022-11-15T07:19:05.721Z,87.37
2022-11-15T07:20:05.689Z,87.37
2022-11-15T07:21:05.682Z,87.37
2022-11-15T07:22:05.672Z,87.37
2022-11-15T07:23:05.657Z,87.26
2022-11-15T07:24:05.649Z,87.16
2022-11-15T07:25:05.644Z,87.06
2022-11-15T07:26:05.630Z,86.82
2022-11-15T07:27:05.651Z,86.71
2022-11-15T07:28:05.613Z,86.51
2022-11-15T07:29:05.651Z,86.41
2022-11-15T07:30:05.580Z,86.10
2022-11-15T07:31:05.587Z,85.96
2022-11-15T07:32:05.573Z,85.66
2022-11-15T07:33:05.548Z,85.45
2022-11-15T07:34:05.539Z,85.25
2022-11-15T07:35:05.530Z,85.05
2022-11-15T07:36:05.529Z,84.70
2022-11-15T07:37:05.528Z,84.50
2022-11-15T07:38:05.509Z,84.39
2022-11-15T07:39:05.560Z,84.29
2022-11-15T07:40:05.497Z,84.29
2022-11-15T07:41:05.464Z,84.19
2022-11-15T07:42:05.470Z,84.29
2022-11-15T07:43:05.449Z,84.19
2022-11-15T07:44:05.448Z,84.19
2022-11-15T07:45:05.421Z,84.19
2022-11-15T07:46:05.431Z,84.19
2022-11-15T07:47:05.397Z,84.29
2022-11-15T07:48:05.390Z,84.29
2022-11-15T07:49:05.412Z,84.29
2022-11-15T07:50:05.367Z,84.39
2022-11-15T07:51:08.790Z,84.39
2022-11-15T07:52:06.364Z,84.50
2022-11-15T07:53:05.330Z,84.50
2022-11-15T07:54:05.345Z,84.59
2022-11-15T07:55:05.327Z,84.59
2022-11-15T07:56:05.309Z,84.50
2022-11-15T07:57:07.611Z,84.50
2022-11-15T07:58:05.276Z,84.50
2022-11-15T07:59:05.272Z,84.50
2022-11-15T08:00:05.275Z,84.39
2022-11-15T08:01:05.449Z,84.39
2022-11-15T08:02:05.325Z,84.29
2022-11-15T08:03:05.227Z,84.09
2022-11-15T08:04:05.244Z,84.09
2022-11-15T08:05:05.223Z,83.98
2022-11-15T08:06:05.217Z,83.89
2022-11-15T08:07:05.217Z,83.98
2022-11-15T08:08:05.737Z,83.89
2022-11-15T08:09:05.164Z,83.78
2022-11-15T08:10:05.238Z,83.78
2022-11-15T08:11:05.168Z,83.64
2022-11-15T08:12:05.135Z,83.64
2022-11-15T08:13:05.180Z,83.64
2022-11-15T08:14:05.129Z,83.54
2022-11-15T08:15:05.109Z,83.54
2022-11-15T08:16:05.109Z,83.44
2022-11-15T08:17:05.090Z,83.54
2022-11-15T08:18:05.054Z,83.44
2022-11-15T08:19:05.060Z,83.44
2022-11-15T08:20:05.052Z,83.23
2022-11-15T08:21:05.057Z,83.03
2022-11-15T08:22:05.015Z,82.82
2022-11-15T08:23:04.995Z,82.89
2022-11-15T08:24:05.006Z,82.68
2022-11-15T08:25:05.002Z,82.38
2022-11-15T08:26:04.977Z,82.14
2022-11-15T08:27:05.011Z,81.73
2022-11-15T08:28:04.959Z,81.43
2022-11-15T08:29:04.956Z,81.53
2022-11-15T08:30:04.947Z,81.23
2022-11-15T08:31:04.927Z,80.82
2022-11-15T08:32:04.942Z,80.78
2022-11-15T08:33:04.906Z,80.88
2022-11-15T08:34:04.899Z,80.68
2022-11-15T08:35:04.881Z,80.27
2022-11-15T08:36:04.877Z,80.07
2022-11-15T08:37:04.854Z,80.03
2022-11-15T08:38:04.854Z,79.93
2022-11-15T08:39:06.597Z,79.83
2022-11-15T08:40:04.832Z,79.72
2022-11-15T08:41:04.827Z,79.63
2022-11-15T08:42:04.822Z,79.63
2022-11-15T08:43:04.802Z,79.52
2022-11-15T08:44:04.777Z,79.72
2022-11-15T08:45:04.778Z,79.49
2022-11-15T08:46:04.766Z,79.08
2022-11-15T08:47:04.765Z,79.08
2022-11-15T08:48:04.747Z,79.08
2022-11-15T08:49:04.748Z,78.98
2022-11-15T08:50:04.742Z,78.98
2022-11-15T08:51:04.808Z,78.98
2022-11-15T08:52:04.706Z,78.98
2022-11-15T08:53:04.693Z,78.88
2022-11-15T08:54:04.687Z,78.67
2022-11-15T08:55:04.664Z,78.67
2022-11-15T08:56:04.670Z,78.57
2022-11-15T08:57:04.658Z,78.67
2022-11-15T08:58:04.643Z,78.53
2022-11-15T08:59:04.660Z,78.33
2022-11-15T09:00:04.639Z,78.33
2022-11-15T09:01:04.676Z,78.23
2022-11-15T09:02:04.646Z,78.33
2022-11-15T09:03:04.583Z,78.37
2022-11-15T09:04:04.587Z,78.57
2022-11-15T09:05:04.570Z,78.23
2022-11-15T09:06:04.552Z,78.33
2022-11-15T09:07:04.589Z,77.79
2022-11-15T09:08:19.124Z,77.79
2022-11-15T09:09:05.523Z,77.38
2022-11-15T09:10:06.279Z,77.08
2022-11-15T09:11:04.497Z,77.18
2022-11-15T09:12:04.497Z,77.38
2022-11-15T09:13:04.489Z,77.72
2022-11-15T09:14:04.476Z,77.83
2022-11-15T09:15:04.467Z,77.83
2022-11-15T09:16:04.462Z,77.79
2022-11-15T09:17:04.430Z,77.04
2022-11-15T09:18:04.439Z,76.13
2022-11-15T09:20:05.431Z,76.43
2022-11-15T09:21:04.388Z,76.60
2022-11-15T09:22:04.378Z,74.60
2022-11-15T09:23:04.398Z,74.10
2022-11-15T09:24:04.366Z,72.61
2022-11-15T09:25:07.335Z,71.47
2022-11-15T09:26:05.356Z,71.03
2022-11-15T09:27:04.331Z,70.49
2022-11-15T09:28:04.326Z,69.98
2022-11-15T09:29:04.323Z,70.02
2022-11-15T09:30:05.149Z,70.96
2022-11-15T09:31:04.306Z,71.50
2022-11-15T09:32:04.280Z,72.04
2022-11-15T09:33:04.292Z,72.55
2022-11-15T09:34:04.270Z,72.99
2022-11-15T09:35:04.232Z,73.19
2022-11-15T09:36:04.229Z,73.09
2022-11-15T09:37:04.216Z,72.68
2022-11-15T09:38:04.201Z,72.58
2022-11-15T09:39:04.199Z,71.97
2022-11-15T09:40:04.200Z,72.17
2022-11-15T09:41:04.391Z,72.17
2022-11-15T09:42:04.246Z,71.67
2022-11-15T09:43:04.187Z,72.17
2022-11-15T09:44:04.152Z,71.57
2022-11-15T09:45:04.154Z,71.06
2022-11-15T09:46:04.157Z,70.96
2022-11-15T09:47:04.106Z,70.96
2022-11-15T09:48:04.098Z,71.57
2022-11-15T09:49:04.078Z,71.37
2022-11-15T09:50:05.073Z,70.56
2022-11-15T09:51:04.070Z,70.76
2022-11-15T09:52:04.061Z,70.76
2022-11-15T09:53:04.073Z,71.06
2022-11-15T09:54:50.964Z,71.26
2022-11-15T09:55:05.029Z,71.57
2022-11-15T09:56:04.022Z,71.67
2022-11-15T09:57:04.002Z,71.47
2022-11-15T09:58:03.996Z,71.47
2022-11-15T09:59:03.990Z,71.57
2022-11-15T10:00:30.766Z,70.83
2022-11-15T10:01:04.972Z,70.45
2022-11-15T10:02:03.984Z,70.56
2022-11-15T10:03:03.973Z,69.74
2022-11-15T10:04:07.843Z,70.05
2022-11-15T10:05:04.923Z,70.25
2022-11-15T10:06:03.942Z,70.32
2022-11-15T10:07:03.964Z,69.92
2022-11-15T10:08:03.895Z,69.41
2022-11-15T10:09:03.896Z,69.51
2022-11-15T10:10:03.858Z,69.21
2022-11-15T10:12:05.830Z,68.80
2022-11-15T10:13:03.835Z,69.10
2022-11-15T10:14:03.821Z,67.89
2022-11-15T10:15:03.811Z,67.89
2022-11-15T10:16:03.793Z,66.78
2022-11-15T10:17:03.785Z,67.82
2022-11-15T10:18:03.776Z,68.33
2022-11-15T10:19:03.767Z,67.99
2022-11-15T10:20:05.941Z,67.42
2022-11-15T10:21:03.764Z,67.39
2022-11-15T10:22:03.730Z,67.18
2022-11-15T10:23:03.746Z,66.98
2022-11-15T10:24:03.743Z,66.91
2022-11-15T10:25:03.703Z,67.11
2022-11-15T10:26:06.845Z,67.32
2022-11-15T10:27:03.690Z,67.59
2022-11-15T10:28:03.671Z,66.98
2022-11-15T10:29:03.662Z,66.58
2022-11-15T10:30:03.650Z,66.27
2022-11-15T10:31:03.646Z,65.97
2022-11-15T10:32:03.626Z,66.17
2022-11-15T10:33:03.624Z,65.97
2022-11-15T10:34:03.598Z,66.20
2022-11-15T10:35:03.619Z,66.98
2022-11-15T10:36:03.580Z,66.17
2022-11-15T10:37:03.577Z,66.04
2022-11-15T10:38:03.569Z,66.04
2022-11-15T10:39:03.556Z,65.64
2022-11-15T10:40:03.540Z,64.83
2022-11-15T10:41:03.521Z,63.92
2022-11-15T10:42:09.574Z,64.15
2022-11-15T10:43:05.493Z,63.84
2022-11-15T10:44:03.490Z,64.25
2022-11-15T10:45:03.502Z,64.83
2022-11-15T10:46:24.707Z,65.13
2022-11-15T10:47:04.476Z,65.23
2022-11-15T10:48:03.450Z,65.23
2022-11-15T10:49:03.461Z,65.23
2022-11-15T10:50:03.430Z,65.03
2022-11-15T10:51:03.422Z,64.73
2022-11-15T10:52:03.413Z,64.73
2022-11-15T10:53:03.402Z,64.45
2022-11-15T10:54:05.662Z,64.35
2022-11-15T10:55:04.383Z,64.15
2022-11-15T10:56:03.359Z,63.75
2022-11-15T10:57:03.372Z,63.41
2022-11-15T10:58:03.360Z,63.31
2022-11-15T10:59:03.330Z,63.41
2022-11-15T11:00:03.322Z,62.98
2022-11-15T11:01:03.371Z,62.37
2022-11-15T11:02:03.313Z,62.37
2022-11-15T11:03:03.303Z,62.47
2022-11-15T11:04:03.303Z,62.27
2022-11-15T11:05:03.276Z,61.87
2022-11-15T11:06:03.243Z,61.53
2022-11-15T11:07:03.311Z,60.93
2022-11-15T11:08:03.256Z,60.42
2022-11-15T11:09:03.257Z,60.82
2022-11-15T11:10:03.632Z,60.72
2022-11-15T11:11:03.978Z,60.09
2022-11-15T11:12:03.191Z,60.36
2022-11-15T11:13:03.216Z,59.25
2022-11-15T11:14:03.400Z,59.15
2022-11-15T11:15:03.165Z,58.25
2022-11-15T11:16:03.150Z,57.81
2022-11-15T11:17:03.135Z,57.81
2022-11-15T11:18:03.148Z,57.91
2022-11-15T11:19:03.117Z,57.21
2022-11-15T11:20:03.114Z,57.10
2022-11-15T11:21:03.125Z,57.03
2022-11-15T11:22:03.111Z,57.43
2022-11-15T11:23:03.087Z,58.14
2022-11-15T11:24:03.067Z,57.74
2022-11-15T11:25:03.064Z,57.64
2022-11-15T11:26:03.402Z,57.74
2022-11-15T11:27:03.047Z,57.51
2022-11-15T11:28:03.042Z,57.41
2022-11-15T11:29:03.035Z,57.58
2022-11-15T11:30:03.011Z,57.58
2022-11-15T11:31:03.011Z,57.15
2022-11-15T11:32:02.991Z,57.35
2022-11-15T11:33:02.988Z,57.25
2022-11-15T11:34:02.958Z,57.48
2022-11-15T11:35:02.965Z,57.78
2022-11-15T11:36:02.943Z,57.56
2022-11-15T11:37:02.953Z,57.25
2022-11-15T11:38:02.950Z,57.25
2022-11-15T11:39:02.916Z,57.35
2022-11-15T11:40:07.486Z,57.15
2022-11-15T11:41:03.899Z,57.05
2022-11-15T11:42:02.873Z,57.45
2022-11-15T11:43:02.868Z,57.58
2022-11-15T11:44:02.876Z,57.78
2022-11-15T11:45:02.882Z,57.98
2022-11-15T11:46:02.832Z,58.32
2022-11-15T11:47:02.846Z,58.52
2022-11-15T11:48:02.829Z,58.92
2022-11-15T11:49:02.809Z,58.82
2022-11-15T11:50:03.744Z,59.02
2022-11-15T11:51:02.783Z,59.12
2022-11-15T11:52:02.772Z,59.09
2022-11-15T11:53:04.386Z,59.00
2022-11-15T11:54:02.775Z,58.89
2022-11-15T11:55:02.736Z,58.87
2022-11-15T11:56:02.728Z,58.87
2022-11-15T11:57:02.734Z,58.76
2022-11-15T11:58:02.737Z,58.67
2022-11-15T11:59:02.714Z,58.14
2022-11-15T12:00:02.687Z,57.90
2022-11-15T12:01:02.684Z,56.90
2022-11-15T12:02:02.787Z,57.00
2022-11-15T12:03:02.803Z,57.43
2022-11-15T12:04:02.656Z,57.93
2022-11-15T12:05:02.627Z,58.47
2022-11-15T12:06:02.729Z,59.07
2022-11-15T12:07:02.685Z,58.36
2022-11-15T12:08:04.283Z,58.87
2022-11-15T12:09:02.607Z,58.64
2022-11-15T12:10:02.595Z,58.41
2022-11-15T12:11:02.559Z,57.81
2022-11-15T12:12:02.555Z,57.60
2022-11-15T12:13:02.559Z,57.48
2022-11-15T12:14:02.564Z,56.97
2022-11-15T12:15:02.722Z,56.77
2022-11-15T12:16:07.459Z,56.37
2022-11-15T12:17:03.534Z,56.27
2022-11-15T12:18:02.514Z,56.57
2022-11-15T12:19:02.488Z,55.96
2022-11-15T12:20:02.470Z,55.94
2022-11-15T12:21:02.466Z,56.37
2022-11-15T12:22:02.447Z,56.84
2022-11-15T12:23:02.439Z,56.31
2022-11-15T12:24:02.439Z,55.71
2022-11-15T12:25:02.457Z,55.43
2022-11-15T12:26:02.422Z,56.04
2022-11-15T12:27:02.401Z,56.67
2022-11-15T12:28:02.389Z,56.37
2022-11-15T12:29:07.857Z,56.77
2022-11-15T12:30:03.374Z,56.37
2022-11-15T12:31:02.359Z,56.37
2022-11-15T12:32:02.373Z,56.67
2022-11-15T12:33:02.355Z,56.67
2022-11-15T12:34:07.107Z,56.07
2022-11-15T12:35:03.336Z,56.27
2022-11-15T12:36:02.318Z,56.37
2022-11-15T12:37:02.295Z,56.34
2022-11-15T12:38:02.302Z,55.21
2022-11-15T12:39:02.291Z,54.78
2022-11-15T12:40:03.922Z,54.28
2022-11-15T12:41:02.257Z,54.45
2022-11-15T12:42:02.249Z,54.15
2022-11-15T12:43:02.231Z,53.85
2022-11-15T12:44:02.227Z,53.95
2022-11-15T12:45:02.255Z,54.45
2022-11-15T12:46:02.264Z,53.75
2022-11-15T12:47:02.190Z,54.15
2022-11-15T12:48:02.175Z,54.25
2022-11-15T12:49:02.173Z,53.32
2022-11-15T12:50:02.159Z,53.47
2022-11-15T12:51:02.155Z,54.40
2022-11-15T12:52:02.150Z,54.60
2022-11-15T12:53:02.131Z,54.80
2022-11-15T12:54:02.143Z,54.58
2022-11-15T12:55:02.103Z,54.38
2022-11-15T12:56:02.094Z,53.85
2022-11-15T12:57:02.101Z,54.25
2022-11-15T12:58:02.075Z,53.72
2022-11-15T12:59:02.065Z,53.02
2022-11-15T13:00:02.061Z,53.65
2022-11-15T13:01:02.107Z,53.55
2022-11-15T13:02:02.078Z,53.25
2022-11-15T13:03:02.034Z,53.55
2022-11-15T13:04:02.048Z,53.67
2022-11-15T13:05:02.005Z,53.75
2022-11-15T13:06:02.015Z,53.67
2022-11-15T13:07:02.021Z,54.05
2022-11-15T13:08:01.977Z,53.75
2022-11-15T13:09:01.964Z,53.34
2022-11-15T13:10:01.956Z,53.25
2022-11-15T13:11:02.889Z,53.57
2022-11-15T13:12:01.935Z,53.88
2022-11-15T13:13:01.920Z,53.77
2022-11-15T13:14:01.924Z,53.37
2022-11-15T13:15:02.480Z,53.77
2022-11-15T13:16:01.898Z,53.77
2022-11-15T13:17:02.074Z,54.10
2022-11-15T13:18:01.874Z,54.86
2022-11-15T13:19:01.886Z,55.46
2022-11-15T13:20:01.854Z,55.56
2022-11-15T13:21:02.963Z,55.36
2022-11-15T13:22:01.836Z,55.00
2022-11-15T13:23:01.829Z,54.50
2022-11-15T13:24:01.827Z,54.30
2022-11-15T13:25:01.808Z,54.17
2022-11-15T13:26:01.811Z,53.85
2022-11-15T13:27:01.775Z,53.22
2022-11-15T13:28:07.606Z,53.00
2022-11-15T13:29:02.771Z,52.77
2022-11-15T13:30:01.763Z,52.26
2022-11-15T13:31:01.750Z,51.54
2022-11-15T13:32:01.724Z,51.44
2022-11-15T13:33:01.721Z,51.64
2022-11-15T13:34:01.743Z,52.52
2022-11-15T13:35:01.708Z,54.22
2022-11-15T13:36:01.698Z,54.93
2022-11-15T13:37:01.687Z,55.75
2022-11-15T13:38:01.668Z,56.26
2022-11-15T13:39:01.752Z,56.58
2022-11-15T13:40:01.638Z,56.88
2022-11-15T13:41:01.639Z,56.76
2022-11-15T13:42:01.641Z,56.65
2022-11-15T13:43:01.618Z,56.65
2022-11-15T13:44:01.600Z,57.06
2022-11-15T13:45:01.605Z,57.61
2022-11-15T13:46:01.585Z,58.44
2022-11-15T13:47:01.578Z,59.38
2022-11-15T13:48:01.757Z,59.08
2022-11-15T13:49:01.707Z,59.17
2022-11-15T13:50:01.681Z,59.58
2022-11-15T13:51:01.541Z,60.11
2022-11-15T13:52:01.521Z,59.91
2022-11-15T13:53:01.526Z,60.00
2022-11-15T13:54:01.499Z,59.80
2022-11-15T13:55:01.548Z,59.58
2022-11-15T13:56:01.486Z,58.94
2022-11-15T13:57:01.478Z,58.64
2022-11-15T13:58:01.473Z,58.11
2022-11-15T13:59:01.468Z,58.01
2022-11-15T14:00:01.438Z,58.01
2022-11-15T14:01:01.426Z,58.62
2022-11-15T14:02:01.458Z,58.62
2022-11-15T14:03:01.400Z,58.64
2022-11-15T14:04:01.414Z,58.75
2022-11-15T14:05:01.386Z,58.75
2022-11-15T14:06:01.397Z,58.62
2022-11-15T14:07:01.398Z,57.91
2022-11-15T14:08:01.354Z,57.81
2022-11-15T14:09:01.368Z,58.01
2022-11-15T14:10:01.331Z,58.11
2022-11-15T14:11:01.313Z,58.22
2022-11-15T14:12:01.429Z,58.31
2022-11-15T14:13:01.305Z,58.75
2022-11-15T14:14:01.292Z,59.08
2022-11-15T14:15:01.302Z,60.00
2022-11-15T14:16:01.268Z,60.41
2022-11-15T14:17:01.303Z,60.31
2022-11-15T14:18:01.270Z,59.67
2022-11-15T14:19:01.423Z,59.34
2022-11-15T14:20:01.233Z,58.72
2022-11-15T14:21:01.224Z,58.51
2022-11-15T14:22:01.199Z,58.51
2022-11-15T14:23:01.196Z,58.31
2022-11-15T14:24:01.198Z,58.09
2022-11-15T14:25:01.188Z,57.98
2022-11-15T14:26:01.183Z,58.11
2022-11-15T14:27:01.147Z,58.62
2022-11-15T14:28:01.151Z,58.47
2022-11-15T14:29:01.127Z,59.63
2022-11-15T14:30:01.142Z,60.19
2022-11-15T14:31:01.125Z,61.23
2022-11-15T14:32:01.226Z,61.53
2022-11-15T14:33:01.098Z,61.30
2022-11-15T14:34:01.088Z,60.83
2022-11-15T14:35:01.073Z,61.39
2022-11-15T14:36:01.080Z,61.72
2022-11-15T14:37:01.068Z,62.12
2022-11-15T14:38:01.054Z,62.15
2022-11-15T14:39:01.297Z,63.09
2022-11-15T14:40:01.358Z,63.52
2022-11-15T14:41:01.011Z,64.16
2022-11-15T14:42:01.028Z,64.90
2022-11-15T14:43:01.010Z,65.50
2022-11-15T14:44:00.974Z,65.84
2022-11-15T14:45:00.976Z,66.38
2022-11-15T14:46:00.962Z,66.88
2022-11-15T14:47:00.964Z,66.91
2022-11-15T14:48:00.940Z,66.91
2022-11-15T14:49:00.925Z,67.22
2022-11-15T14:50:00.954Z,67.22
2022-11-15T14:51:00.906Z,67.32
2022-11-15T14:52:00.893Z,67.32
2022-11-15T14:53:00.866Z,66.91
2022-11-15T14:54:00.871Z,67.35
2022-11-15T14:55:00.850Z,67.14
2022-11-15T14:56:00.853Z,67.35
2022-11-15T14:57:00.844Z,67.35
2022-11-15T14:58:00.836Z,67.55
2022-11-15T14:59:00.825Z,67.68
2022-11-15T15:00:00.809Z,67.58
2022-11-15T15:01:00.789Z,67.68
2022-11-15T15:02:00.925Z,67.79
2022-11-15T15:03:00.775Z,68.02
2022-11-15T15:04:00.769Z,68.12
2022-11-15T15:05:00.749Z,68.32
2022-11-15T15:06:00.734Z,68.43
2022-11-15T15:07:00.820Z,68.35
2022-11-15T15:08:00.922Z,68.26
2022-11-15T15:09:00.706Z,68.35
2022-11-15T15:10:32.343Z,68.46
2022-11-15T15:11:01.682Z,68.66
2022-11-15T15:12:05.970Z,68.90
2022-11-15T15:13:01.667Z,69.20